Time;durP1;ratioP1;P1;durP2;ratioP2;P2;SDS_P1;SDS_P2;PMS_P1;PMS_P2;Temp;Humidity;BMP_temperature;BMP_pressure;BME280_temperature;BME280_humidity;BME280_pressure;Samples;Min_cycle;Max_cycle;Signal;HPM_P1;HPM_P2
2021/12/21 00:00:48;;;;;;;18.02;5.85;;;-1.20;99.90;;;;;;5016919;28;20123;-49
2021/12/21 00:03:14;;;;;;;17.58;6.70;;;-1.20;99.90;;;;;;5015625;28;20119;-51
2021/12/21 00:05:41;;;;;;;16.10;6.63;;;-1.30;99.90;;;;;;5016715;28;20021;-51
2021/12/21 00:08:09;;;;;;;28.88;9.25;;;-1.30;99.90;;;;;;5015775;28;20041;-49
2021/12/21 00:10:36;;;;;;;20.88;7.90;;;-1.40;99.90;;;;;;5017340;28;20022;-53
2021/12/21 00:13:10;;;;;;;22.27;7.40;;;-1.50;99.90;;;;;;5015816;28;20120;-51
2021/12/21 00:18:29;;;;;;;24.33;7.75;;;-1.40;99.90;;;;;;5016512;28;20033;-53
2021/12/21 00:21:05;;;;;;;17.52;6.57;;;-1.40;99.90;;;;;;5016630;28;20029;-50
2021/12/21 00:23:33;;;;;;;19.05;7.15;;;-1.30;99.90;;;;;;5015184;28;20026;-52
2021/12/21 00:26:12;;;;;;;19.98;6.05;;;-1.30;99.90;;;;;;5015439;28;20113;-55
2021/12/21 00:29:00;;;;;;;19.52;5.97;;;-1.20;99.90;;;;;;5015593;28;20026;-54
2021/12/21 00:31:27;;;;;;;13.70;5.78;;;-1.30;99.90;;;;;;5016589;28;20033;-54
2021/12/21 00:33:54;;;;;;;12.45;5.10;;;-1.20;99.90;;;;;;5015389;28;20028;-56
2021/12/21 00:36:23;;;;;;;14.55;5.20;;;-1.30;99.90;;;;;;5016115;28;20024;-52
2021/12/21 00:39:15;;;;;;;14.63;6.05;;;-1.30;99.90;;;;;;5016171;28;20104;-56
2021/12/21 00:41:40;;;;;;;18.00;7.03;;;-1.30;99.90;;;;;;5016477;28;20057;-55
2021/12/21 00:44:06;;;;;;;17.38;6.18;;;-1.40;99.90;;;;;;5014919;28;20104;-55
2021/12/21 00:46:32;;;;;;;17.92;5.40;;;-1.50;99.90;;;;;;5014625;28;20034;-54
2021/12/21 00:49:06;;;;;;;17.42;5.97;;;-1.60;99.90;;;;;;5016077;28;20029;-55
2021/12/21 00:51:31;;;;;;;17.20;6.68;;;-1.60;99.90;;;;;;5015842;28;20061;-56
2021/12/21 00:53:57;;;;;;;15.15;5.97;;;-1.60;99.90;;;;;;5015872;28;20080;-54
2021/12/21 00:56:22;;;;;;;14.32;6.10;;;-1.60;99.90;;;;;;5014625;28;20036;-54
2021/12/21 00:58:48;;;;;;;12.68;5.80;;;-1.60;99.90;;;;;;5015784;28;20026;-54
2021/12/21 01:01:14;;;;;;;10.40;5.28;;;-1.50;99.90;;;;;;5015754;28;20423;-55
2021/12/21 01:03:45;;;;;;;13.60;5.93;;;-1.50;99.90;;;;;;5014538;28;20026;-56
2021/12/21 01:06:23;;;;;;;17.10;6.88;;;-1.50;99.90;;;;;;5014380;28;20022;-54
2021/12/21 01:11:32;;;;;;;12.55;6.32;;;-1.70;99.90;;;;;;5016352;28;20018;-55
2021/12/21 01:16:32;;;;;;;18.88;6.72;;;-1.50;99.90;;;;;;5016148;28;20053;-56
2021/12/21 01:19:25;;;;;;;19.73;7.30;;;-1.60;99.90;;;;;;5014350;28;20037;-55
2021/12/21 01:22:03;;;;;;;15.13;6.50;;;-1.60;99.90;;;;;;5015012;28;20041;-51
2021/12/21 01:29:58;;;;;;;20.00;6.32;;;-1.60;99.90;;;;;;5015874;28;20022;-56
2021/12/21 01:32:39;;;;;;;18.83;6.30;;;-1.60;99.90;;;;;;5013969;28;20025;-54
2021/12/21 01:35:23;;;;;;;22.05;6.70;;;-1.50;99.90;;;;;;5013964;28;20018;-55
2021/12/21 01:38:02;;;;;;;18.23;6.03;;;-1.60;99.90;;;;;;5015158;28;20036;-55
2021/12/21 01:50:51;;;;;;;16.88;5.90;;;-1.70;99.90;;;;;;5015055;28;20129;-54
2021/12/21 01:53:17;;;;;;;12.20;5.80;;;-1.80;99.90;;;;;;5014830;28;20101;-56
2021/12/21 01:55:43;;;;;;;18.85;7.38;;;-1.80;99.90;;;;;;5013459;28;20453;-54
2021/12/21 01:58:09;;;;;;;16.58;5.93;;;-1.90;99.90;;;;;;5014714;28;20076;-55
2021/12/21 02:00:37;;;;;;;15.35;6.15;;;-2.00;99.90;;;;;;5014757;28;20111;-52
2021/12/21 02:03:03;;;;;;;22.77;7.07;;;-2.00;99.90;;;;;;5013391;28;20084;-52
2021/12/21 02:05:29;;;;;;;14.82;6.75;;;-2.10;99.90;;;;;;5014497;28;20029;-54
2021/12/21 02:07:55;;;;;;;16.20;5.95;;;-2.10;99.90;;;;;;5013074;28;20052;-55
2021/12/21 02:10:21;;;;;;;19.42;7.53;;;-2.10;99.90;;;;;;5015040;28;20046;-55
2021/12/21 02:12:47;;;;;;;20.98;6.20;;;-2.10;99.90;;;;;;5014682;28;20091;-51
2021/12/21 02:15:13;;;;;;;14.68;5.90;;;-2.00;99.90;;;;;;5014283;28;20101;-51
2021/12/21 02:18:15;;;;;;;16.83;5.72;;;-1.90;99.90;;;;;;5013037;28;20472;-55
2021/12/21 02:28:10;;;;;;;21.52;8.43;;;-2.00;99.90;;;;;;5014156;28;20025;-56
2021/12/21 02:30:45;;;;;;;19.02;9.13;;;-2.00;99.90;;;;;;5014184;28;20029;-56
2021/12/21 02:33:13;;;;;;;11.43;6.13;;;-2.00;99.90;;;;;;5014357;28;20037;-54
2021/12/21 02:35:39;;;;;;;14.43;5.60;;;-2.00;99.90;;;;;;5013070;28;20029;-51
2021/12/21 02:38:05;;;;;;;16.75;6.38;;;-2.10;99.90;;;;;;5012821;28;20022;-56
2021/12/21 02:40:31;;;;;;;24.33;6.63;;;-2.10;99.90;;;;;;5012677;28;20052;-55
2021/12/21 02:42:57;;;;;;;16.63;5.78;;;-2.10;99.90;;;;;;5013991;28;20025;-54
2021/12/21 02:45:23;;;;;;;12.68;5.10;;;-2.10;99.90;;;;;;5014149;28;20076;-53
2021/12/21 02:47:48;;;;;;;15.93;5.68;;;-2.10;99.90;;;;;;5012561;28;20120;-56
2021/12/21 02:50:14;;;;;;;22.65;6.85;;;-2.10;99.90;;;;;;5012678;28;20034;-55
2021/12/21 02:52:40;;;;;;;16.70;5.63;;;-2.10;99.90;;;;;;5012536;28;20053;-55
2021/12/21 02:55:07;;;;;;;15.48;7.28;;;-2.10;99.90;;;;;;5013189;28;20029;-53
2021/12/21 02:57:32;;;;;;;12.65;5.32;;;-2.10;99.90;;;;;;5013625;28;20072;-52
2021/12/21 03:00:00;;;;;;;14.40;5.35;;;-2.10;99.90;;;;;;5012466;28;20022;-53
2021/12/21 03:02:27;;;;;;;24.92;5.78;;;-2.20;99.90;;;;;;5020819;28;20018;-56
2021/12/21 03:04:52;;;;;;;17.52;6.20;;;-2.20;99.90;;;;;;5013534;28;20028;-54
2021/12/21 03:10:09;;;;;;;16.05;5.70;;;-2.20;99.90;;;;;;5013817;28;20164;-54
2021/12/21 03:15:23;;;;;;;9.52;5.05;;;-2.30;99.90;;;;;;5013798;28;20018;-52
2021/12/21 03:17:50;;;;;;;16.73;5.50;;;-2.20;99.90;;;;;;5013303;28;20129;-52
2021/12/21 03:20:16;;;;;;;13.88;5.43;;;-2.10;99.90;;;;;;5012666;28;20026;-53
2021/12/21 03:22:42;;;;;;;10.30;5.07;;;-2.20;99.90;;;;;;5012168;28;20097;-55
2021/12/21 03:25:08;;;;;;;12.52;5.65;;;-2.20;99.90;;;;;;5013615;28;20109;-56
2021/12/21 03:27:34;;;;;;;12.88;4.88;;;-2.30;99.90;;;;;;5011989;28;20026;-55
2021/12/21 03:30:00;;;;;;;14.60;5.32;;;-2.50;99.90;;;;;;5012029;28;20056;-56
2021/12/21 03:32:25;;;;;;;16.98;5.05;;;-2.50;99.90;;;;;;5012362;28;20022;-53
2021/12/21 03:34:51;;;;;;;14.05;4.50;;;-2.50;99.90;;;;;;5013799;28;20018;-52
2021/12/21 03:37:17;;;;;;;9.63;4.70;;;-2.50;99.90;;;;;;5012221;28;20022;-55
2021/12/21 03:39:45;;;;;;;14.40;6.13;;;-2.50;99.90;;;;;;5013265;28;20022;-53
2021/12/21 03:42:13;;;;;;;13.70;5.35;;;-2.50;99.90;;;;;;5012068;28;20021;-55
2021/12/21 03:44:39;;;;;;;11.63;4.75;;;-2.50;99.90;;;;;;5013471;28;20018;-55
2021/12/21 03:47:08;;;;;;;14.20;5.63;;;-2.40;99.90;;;;;;5013105;28;20114;-56
2021/12/21 03:52:08;;;;;;;15.32;5.47;;;-2.40;99.90;;;;;;5013613;28;20515;-56
2021/12/21 03:54:34;;;;;;;9.55;4.50;;;-2.50;99.90;;;;;;5013539;28;20057;-56
2021/12/21 03:57:01;;;;;;;10.30;4.20;;;-2.50;99.90;;;;;;5013260;28;20025;-51
2021/12/21 03:59:27;;;;;;;11.95;4.70;;;-2.50;99.90;;;;;;5013345;28;20050;-56
2021/12/21 04:01:53;;;;;;;23.35;5.35;;;-2.50;99.90;;;;;;5013100;28;20105;-54
2021/12/21 04:04:19;;;;;;;11.52;4.80;;;-2.50;99.90;;;;;;5013027;28;20109;-55
2021/12/21 04:06:46;;;;;;;11.43;4.55;;;-2.60;99.90;;;;;;5012934;28;20072;-55
2021/12/21 04:09:12;;;;;;;10.50;4.65;;;-2.60;99.90;;;;;;5011634;28;20036;-54
2021/12/21 04:11:38;;;;;;;9.57;3.95;;;-2.60;99.90;;;;;;5012833;28;20109;-55
2021/12/21 04:14:04;;;;;;;10.43;3.97;;;-2.70;99.90;;;;;;5013225;28;20018;-54
2021/12/21 04:16:29;;;;;;;14.82;5.53;;;-2.70;99.90;;;;;;5012878;28;20050;-51
2021/12/21 04:18:55;;;;;;;15.18;4.88;;;-2.70;99.90;;;;;;5012958;28;20026;-54
2021/12/21 04:21:21;;;;;;;9.68;4.50;;;-2.70;99.90;;;;;;5013020;28;20065;-55
2021/12/21 04:23:47;;;;;;;12.43;4.80;;;-2.80;99.90;;;;;;5013049;28;20068;-49
2021/12/21 04:26:14;;;;;;;19.73;4.97;;;-2.70;99.90;;;;;;5012939;28;20072;-52
2021/12/21 04:28:40;;;;;;;10.98;4.25;;;-2.70;99.90;;;;;;5012739;28;20125;-53
2021/12/21 04:31:07;;;;;;;14.63;4.88;;;-2.70;99.90;;;;;;5014637;28;20068;-54
2021/12/21 04:33:33;;;;;;;13.45;5.07;;;-2.70;99.90;;;;;;5016615;28;20377;-52
2021/12/21 04:36:00;;;;;;;11.07;4.57;;;-2.70;99.90;;;;;;5016246;28;20022;-50
2021/12/21 04:38:31;;;;;;;11.63;4.53;;;-2.60;99.90;;;;;;5016464;28;20113;-53
2021/12/21 04:41:12;;;;;;;9.30;4.38;;;-2.60;99.90;;;;;;5016255;28;20029;-51
2021/12/21 04:43:38;;;;;;;17.25;4.55;;;-2.60;99.90;;;;;;5014884;28;20037;-51
2021/12/21 04:46:04;;;;;;;11.25;4.40;;;-2.60;99.90;;;;;;5016106;28;20034;-54
2021/12/21 04:48:31;;;;;;;14.45;4.90;;;-2.60;99.90;;;;;;5014823;28;20022;-52
2021/12/21 04:50:57;;;;;;;10.32;4.68;;;-2.70;99.90;;;;;;5014683;28;20040;-57
2021/12/21 04:53:24;;;;;;;13.57;5.20;;;-2.80;99.90;;;;;;5015952;28;20022;-53
2021/12/21 04:55:50;;;;;;;9.90;3.97;;;-2.80;99.90;;;;;;5015866;28;20396;-52
2021/12/21 04:58:15;;;;;;;10.65;4.07;;;-2.80;99.90;;;;;;5014607;28;20026;-53
2021/12/21 05:00:42;;;;;;;12.00;4.32;;;-2.80;99.90;;;;;;5015777;28;20116;-51
2021/12/21 05:03:07;;;;;;;16.35;4.90;;;-2.90;99.90;;;;;;5015925;28;20105;-53
2021/12/21 05:05:33;;;;;;;8.30;4.05;;;-2.90;99.90;;;;;;5015685;28;20102;-55
2021/12/21 05:08:10;;;;;;;16.02;4.63;;;-2.80;99.90;;;;;;5014366;28;20056;-51
2021/12/21 05:10:48;;;;;;;12.35;4.28;;;-2.80;99.90;;;;;;5015735;28;20101;-54
2021/12/21 05:13:15;;;;;;;17.10;6.15;;;-2.80;99.90;;;;;;5015638;28;20022;-53
2021/12/21 05:15:41;;;;;;;13.13;5.20;;;-2.80;99.90;;;;;;5014129;28;20030;-55
2021/12/21 05:18:07;;;;;;;15.02;5.32;;;-2.80;99.90;;;;;;5014180;28;20087;-55
2021/12/21 05:20:33;;;;;;;15.00;5.63;;;-2.80;99.90;;;;;;5015382;28;20060;-54
2021/12/21 05:22:58;;;;;;;12.95;4.88;;;-2.70;99.90;;;;;;5014084;28;20065;-53
2021/12/21 05:25:24;;;;;;;8.20;4.70;;;-2.80;99.90;;;;;;5015322;28;20061;-54
2021/12/21 05:27:50;;;;;;;9.05;3.95;;;-2.80;99.90;;;;;;5013854;28;20036;-55
2021/12/21 05:30:15;;;;;;;13.55;4.88;;;-2.90;99.90;;;;;;5014225;28;20022;-51
2021/12/21 05:32:41;;;;;;;14.40;5.93;;;-2.90;99.90;;;;;;5015277;28;20025;-55
2021/12/21 05:35:08;;;;;;;12.32;5.10;;;-2.90;99.90;;;;;;5015101;28;20025;-52
2021/12/21 05:37:34;;;;;;;11.57;4.28;;;-2.90;99.90;;;;;;5015057;28;20032;-54
2021/12/21 05:40:15;;;;;;;11.75;4.53;;;-2.90;99.90;;;;;;5014181;28;20054;-55
2021/12/21 05:42:42;;;;;;;12.32;4.47;;;-3.00;99.90;;;;;;5014871;28;20095;-53
2021/12/21 05:45:10;;;;;;;10.35;4.28;;;-3.00;99.90;;;;;;5015154;28;20026;-56
2021/12/21 05:47:36;;;;;;;13.02;5.47;;;-2.90;99.90;;;;;;5014820;28;20030;-52
2021/12/21 05:50:03;;;;;;;10.50;4.85;;;-2.90;99.90;;;;;;5013624;28;20037;-52
2021/12/21 05:52:29;;;;;;;8.60;4.05;;;-2.80;99.90;;;;;;5014848;28;20022;-55
2021/12/21 05:54:54;;;;;;;12.07;4.43;;;-2.80;99.90;;;;;;5014989;28;20018;-55
2021/12/21 05:57:20;;;;;;;14.85;4.03;;;-2.90;99.90;;;;;;5014836;28;20025;-55
2021/12/21 05:59:46;;;;;;;17.52;4.80;;;-3.00;99.90;;;;;;5013648;28;20026;-55
2021/12/21 06:02:11;;;;;;;12.40;5.22;;;-3.10;99.90;;;;;;5013475;28;20033;-50
2021/12/21 06:04:37;;;;;;;14.50;4.78;;;-3.10;99.90;;;;;;5014704;28;20026;-56
2021/12/21 06:07:03;;;;;;;12.30;5.10;;;-3.20;99.90;;;;;;5013228;28;20076;-55
2021/12/21 06:09:30;;;;;;;20.33;6.82;;;-3.20;99.90;;;;;;5014369;28;20030;-55
2021/12/21 06:28:02;;;;;;;11.40;4.35;;;-3.00;99.90;;;;;;5014465;28;20038;-55
2021/12/21 06:30:27;;;;;;;14.82;4.93;;;-3.00;99.90;;;;;;5014436;28;20018;-51
2021/12/21 06:32:53;;;;;;;10.80;4.60;;;-3.00;99.90;;;;;;5012802;28;20384;-51
2021/12/21 06:35:19;;;;;;;12.75;4.30;;;-3.00;99.90;;;;;;5014028;28;20081;-54
2021/12/21 06:37:45;;;;;;;13.68;4.72;;;-3.00;99.90;;;;;;5012833;28;20022;-54
2021/12/21 06:40:11;;;;;;;14.52;4.75;;;-2.90;99.90;;;;;;5012715;28;20072;-51
2021/12/21 06:42:38;;;;;;;10.15;4.63;;;-2.90;99.90;;;;;;5012623;28;20084;-52
2021/12/21 06:45:11;;;;;;;14.15;4.72;;;-3.00;99.90;;;;;;5014167;28;20105;-54
2021/12/21 06:53:05;;;;;;;23.75;8.18;;;-3.10;99.90;;;;;;5013676;28;20108;-52
2021/12/21 06:55:31;;;;;;;22.77;8.27;;;-3.20;99.90;;;;;;5013068;28;20054;-52
2021/12/21 06:57:56;;;;;;;18.10;6.55;;;-3.30;99.90;;;;;;5013288;28;20022;-50
2021/12/21 07:00:22;;;;;;;19.02;6.63;;;-3.20;99.90;;;;;;5012481;28;20121;-56
2021/12/21 07:02:48;;;;;;;14.43;6.50;;;-3.10;99.90;;;;;;5013650;28;20037;-55
2021/12/21 07:05:14;;;;;;;13.80;5.88;;;-3.10;99.90;;;;;;5013645;28;20037;-57
2021/12/21 07:07:40;;;;;;;15.43;5.88;;;-3.10;99.90;;;;;;5013549;28;20028;-55
2021/12/21 07:10:10;;;;;;;12.77;4.90;;;-3.10;99.90;;;;;;5014034;28;20076;-54
2021/12/21 07:18:11;;;;;;;14.07;4.88;;;-3.20;99.90;;;;;;5013677;28;20033;-55
2021/12/21 07:20:37;;;;;;;14.90;4.75;;;-3.30;99.90;;;;;;5013801;28;20022;-52
2021/12/21 07:23:03;;;;;;;8.95;4.20;;;-3.30;99.90;;;;;;5012633;28;20101;-49
2021/12/21 07:25:30;;;;;;;13.70;5.53;;;-3.30;99.90;;;;;;5013507;28;20025;-53
2021/12/21 07:27:56;;;;;;;10.95;5.05;;;-3.30;99.90;;;;;;5012096;28;20053;-54
2021/12/21 07:30:23;;;;;;;17.65;6.30;;;-3.30;99.90;;;;;;5013319;28;20100;-53
2021/12/21 07:32:49;;;;;;;18.30;5.70;;;-3.20;99.90;;;;;;5012070;28;20105;-51
2021/12/21 07:35:15;;;;;;;10.40;4.78;;;-3.10;99.90;;;;;;5011952;28;20113;-51
2021/12/21 07:37:41;;;;;;;11.73;4.78;;;-3.10;99.90;;;;;;5013245;28;20084;-53
2021/12/21 07:40:08;;;;;;;20.83;4.30;;;-3.10;99.90;;;;;;5013183;28;20393;-54
2021/12/21 07:42:34;;;;;;;8.82;4.20;;;-3.10;99.90;;;;;;5011948;28;20105;-50
2021/12/21 07:44:59;;;;;;;16.73;4.00;;;-3.00;99.90;;;;;;5013104;28;20522;-52
2021/12/21 07:47:26;;;;;;;15.85;5.03;;;-2.90;99.90;;;;;;5013149;28;20021;-51
2021/12/21 07:49:51;;;;;;;13.10;4.63;;;-2.90;99.90;;;;;;5013160;28;20032;-51
2021/12/21 07:52:18;;;;;;;10.82;5.10;;;-2.90;99.90;;;;;;5013063;28;20026;-54
2021/12/21 07:54:44;;;;;;;18.27;5.53;;;-2.70;99.90;;;;;;5013088;28;20026;-52
2021/12/21 07:57:10;;;;;;;13.60;5.32;;;-2.30;99.90;;;;;;5013014;28;20034;-55
2021/12/21 07:59:38;;;;;;;10.75;4.55;;;-1.50;99.90;;;;;;5013251;28;20068;-55
2021/12/21 08:02:04;;;;;;;13.40;5.53;;;-0.80;99.90;;;;;;5011790;28;20052;-53
2021/12/21 08:04:30;;;;;;;8.82;4.28;;;-0.20;99.90;;;;;;5013114;28;20029;-56
2021/12/21 08:07:02;;;;;;;16.45;5.40;;;0.40;99.90;;;;;;5015453;28;20022;-52
2021/12/21 08:09:36;;;;;;;;;;;0.90;99.90;;;;;;5016281;28;20030;-55
2021/12/21 08:12:15;;;;;;;17.35;6.78;;;1.10;99.90;;;;;;5015893;28;19929;-52
2021/12/21 08:14:42;;;;;;;35.60;8.90;;;1.60;99.90;;;;;;5016772;28;20018;-56
2021/12/21 08:17:08;;;;;;;20.90;8.00;;;2.10;99.90;;;;;;5016714;28;20473;-56
2021/12/21 08:19:34;;;;;;;19.67;8.23;;;2.90;99.90;;;;;;5015625;28;20114;-56
2021/12/21 08:22:00;;;;;;;19.17;8.27;;;3.10;99.90;;;;;;5016540;28;20030;-56
2021/12/21 08:24:25;;;;;;;16.80;8.23;;;3.20;99.90;;;;;;5016510;28;20048;-56
2021/12/21 08:26:51;;;;;;;18.25;8.50;;;3.80;99.90;;;;;;5015408;28;20064;-55
2021/12/21 08:29:17;;;;;;;14.98;7.18;;;4.20;99.90;;;;;;5015426;28;20084;-53
2021/12/21 08:31:43;;;;;;;22.98;7.93;;;5.30;99.90;;;;;;5016472;28;20026;-57
2021/12/21 08:34:11;;;;;;;15.88;7.28;;;5.80;99.90;;;;;;5016391;28;20033;-56
2021/12/21 08:37:02;;;;;;;15.80;7.15;;;6.10;99.90;;;;;;5014970;28;20025;-56
2021/12/21 08:39:30;;;;;;;18.55;7.47;;;6.30;99.90;;;;;;5019129;28;20143;-57
2021/12/21 08:41:58;;;;;;;19.95;8.02;;;6.70;99.90;;;;;;5035170;28;20392;-57
2021/12/21 08:44:25;;;;;;;21.63;8.45;;;7.20;99.90;;;;;;5034651;28;20076;-56
2021/12/21 08:46:52;;;;;;;33.45;13.93;;;7.60;99.90;;;;;;5036199;28;20017;-54
2021/12/21 08:49:18;;;;;;;27.55;10.88;;;7.70;99.90;;;;;;5035533;28;20041;-56
2021/12/21 08:51:44;;;;;;;20.05;9.73;;;7.70;99.90;;;;;;5034022;28;20044;-55
2021/12/21 08:54:43;;;;;;;20.35;9.30;;;7.90;99.90;;;;;;5034727;28;20037;-55
2021/12/21 08:57:08;;;;;;;18.70;9.10;;;8.00;99.90;;;;;;5035648;28;20026;-56
2021/12/21 08:59:34;;;;;;;21.70;9.57;;;8.10;99.90;;;;;;5035740;28;20025;-57
2021/12/21 09:01:59;;;;;;;16.20;7.47;;;8.40;99.90;;;;;;5035735;28;20033;-56
2021/12/21 09:04:26;;;;;;;19.23;7.88;;;8.90;99.90;;;;;;5018915;28;20061;-56
2021/12/21 09:06:53;;;;;;;22.08;8.45;;;8.40;99.90;;;;;;5014721;28;20029;-56
2021/12/21 09:09:19;;;;;;;18.60;8.40;;;7.90;99.90;;;;;;5016044;28;20049;-52
2021/12/21 09:12:19;;;;;;;13.73;7.10;;;8.50;99.90;;;;;;5015728;28;20136;-51
2021/12/21 09:14:45;;;;;;;14.02;7.55;;;9.40;99.90;;;;;;5015510;28;20014;-54
2021/12/21 09:17:10;;;;;;;18.23;6.85;;;9.40;99.90;;;;;;5013061;28;20022;-56
2021/12/21 09:19:36;;;;;;;15.43;7.18;;;8.90;99.90;;;;;;5015428;28;20091;-52
2021/12/21 09:22:02;;;;;;;12.85;6.13;;;9.10;99.90;;;;;;5022690;28;20021;-56
2021/12/21 09:24:29;;;;;;;14.43;6.05;;;9.00;99.90;;;;;;5051522;28;20514;-53
2021/12/21 09:26:54;;;;;;;19.33;5.90;;;9.30;99.90;;;;;;5055063;28;20024;-57
2021/12/21 09:29:20;;;;;;;12.93;5.75;;;9.30;99.90;;;;;;5054844;28;20025;-56
2021/12/21 09:31:45;;;;;;;15.45;6.32;;;9.50;99.90;;;;;;5054913;28;20021;-50
2021/12/21 09:34:11;;;;;;;12.45;6.30;;;8.90;99.90;;;;;;5054941;28;20024;-52
2021/12/21 09:36:37;;;;;;;17.65;7.00;;;9.10;99.90;;;;;;5053416;28;20017;-55
2021/12/21 09:39:02;;;;;;;15.10;6.85;;;8.20;99.90;;;;;;5053530;28;20427;-53
2021/12/21 09:41:28;;;;;;;14.57;6.90;;;8.20;99.90;;;;;;5054721;28;20075;-53
2021/12/21 09:43:54;;;;;;;13.93;6.30;;;8.20;99.90;;;;;;5054921;28;20024;-51
2021/12/21 09:46:19;;;;;;;12.13;5.40;;;7.70;99.90;;;;;;5054627;28;20108;-50
2021/12/21 09:48:45;;;;;;;14.40;6.20;;;7.40;99.90;;;;;;5054455;28;20053;-49
2021/12/21 09:51:25;;;;;;;20.42;6.40;;;6.60;99.90;;;;;;5053098;28;20035;-50
2021/12/21 09:53:52;;;;;;;21.63;6.97;;;6.30;99.90;;;;;;5053171;28;20079;-51
2021/12/21 09:56:18;;;;;;;17.60;6.15;;;6.20;99.90;;;;;;5052456;28;20017;-53
2021/12/21 09:58:44;;;;;;;11.20;6.05;;;5.70;99.90;;;;;;5033294;28;20025;-50
2021/12/21 10:01:10;;;;;;;13.68;6.53;;;5.70;99.90;;;;;;5028219;28;20036;-52
2021/12/21 10:03:36;;;;;;;15.02;6.20;;;5.40;99.90;;;;;;5014503;28;20101;-54
2021/12/21 10:06:06;;;;;;;15.60;5.72;;;5.40;99.90;;;;;;5014335;28;20026;-51
2021/12/21 10:08:33;;;;;;;16.55;5.70;;;5.60;99.90;;;;;;5013073;28;20026;-53
2021/12/21 10:10:59;;;;;;;9.80;5.10;;;5.50;99.90;;;;;;5014478;28;20022;-51
2021/12/21 10:13:27;;;;;;;18.38;5.90;;;5.00;99.90;;;;;;5013078;28;20026;-54
2021/12/21 10:15:56;;;;;;;10.98;5.10;;;4.60;99.90;;;;;;5014234;28;20061;-52
2021/12/21 10:18:28;;;;;;;13.05;6.38;;;4.40;99.90;;;;;;5012937;28;20037;-55
2021/12/21 10:21:33;;;;;;;16.15;6.45;;;4.10;99.90;;;;;;5029541;28;20101;-51
2021/12/21 10:23:58;;;;;;;9.75;5.38;;;4.30;99.90;;;;;;5014189;28;20034;-50
2021/12/21 10:26:29;;;;;;;13.18;4.93;;;4.50;99.90;;;;;;5014052;28;20033;-52
2021/12/21 10:29:01;;;;;;;16.33;6.40;;;4.40;99.90;;;;;;5025569;28;20030;-54
2021/12/21 10:31:40;;;;;;;19.63;6.25;;;4.30;99.90;;;;;;5032651;28;20116;-52
2021/12/21 10:34:17;;;;;;;15.70;5.28;;;4.20;99.90;;;;;;5032435;28;20025;-54
2021/12/21 10:36:57;;;;;;;24.92;12.02;;;4.30;99.90;;;;;;5032447;28;20025;-52
2021/12/21 10:39:32;;;;;;;50.63;19.17;;;4.10;99.90;;;;;;5035043;28;20025;-51
2021/12/21 10:42:03;;;;;;;21.00;7.78;;;4.00;99.90;;;;;;5052282;28;20029;-53
2021/12/21 10:44:28;;;;;;;13.73;5.35;;;3.70;99.90;;;;;;5052225;28;20029;-52
2021/12/21 10:47:02;;;;;;;10.60;4.35;;;3.70;99.90;;;;;;5051922;28;20021;-53
2021/12/21 10:49:29;;;;;;;10.15;5.18;;;3.60;99.90;;;;;;5053382;28;20029;-51
2021/12/21 10:51:58;;;;;;;9.10;4.75;;;3.40;99.90;;;;;;5053710;28;20028;-56
2021/12/21 10:54:59;;;;;;;14.10;5.50;;;3.60;99.90;;;;;;5052270;28;20052;-57
2021/12/21 10:57:31;;;;;;;9.20;4.65;;;3.50;99.90;;;;;;4972452;28;20033;-54
2021/12/21 11:00:07;;;;;;;15.50;5.35;;;3.60;99.90;;;;;;5040127;28;20029;-56
2021/12/21 11:02:35;;;;;;;11.77;5.68;;;3.40;99.90;;;;;;5052165;28;20017;-56
2021/12/21 11:05:08;;;;;;;15.88;5.45;;;3.40;99.90;;;;;;5049202;28;20036;-56
2021/12/21 11:07:43;;;;;;;18.77;6.03;;;3.40;99.90;;;;;;5013610;28;20068;-54
2021/12/21 11:10:25;;;;;;;13.68;4.90;;;3.50;99.90;;;;;;5031968;28;20117;-53
2021/12/21 11:12:57;;;;;;;11.60;5.25;;;3.60;99.90;;;;;;5031990;28;20021;-51
2021/12/21 11:15:29;;;;;;;14.80;6.07;;;3.50;99.90;;;;;;5031815;28;20026;-53
2021/12/21 11:18:18;;;;;;;12.73;5.78;;;3.60;99.90;;;;;;5033233;28;20017;-53
2021/12/21 11:20:48;;;;;;;14.45;6.40;;;3.60;99.90;;;;;;5020837;28;20038;-53
2021/12/21 11:23:18;;;;;;;14.85;5.70;;;3.50;99.90;;;;;;5013266;28;20029;-53
2021/12/21 11:25:46;;;;;;;14.98;5.53;;;3.60;99.90;;;;;;5013890;28;20053;-56
2021/12/21 11:28:16;;;;;;;19.95;7.05;;;3.40;99.90;;;;;;5012082;28;20029;-56
2021/12/21 11:30:42;;;;;;;12.98;5.05;;;3.20;99.90;;;;;;5012296;28;20025;-54
2021/12/21 11:33:10;;;;;;;13.88;5.55;;;3.50;99.90;;;;;;5012153;28;20093;-51
2021/12/21 11:38:07;;;;;;;17.48;6.00;;;3.60;99.90;;;;;;5013552;28;20026;-55
2021/12/21 11:40:38;;;;;;;12.23;5.20;;;3.60;99.90;;;;;;5014471;28;20022;-56
2021/12/21 11:43:27;;;;;;;15.85;6.15;;;3.60;99.90;;;;;;5016448;28;20400;-56
2021/12/21 11:46:07;;;;;;;14.80;5.97;;;3.70;99.90;;;;;;5016149;28;20034;-52
2021/12/21 11:48:42;;;;;;;13.20;5.95;;;3.70;99.90;;;;;;5017045;28;20026;-54
2021/12/21 11:51:10;;;;;;;18.20;5.80;;;3.90;99.90;;;;;;5019130;28;20098;-52
2021/12/21 11:53:37;;;;;;;10.45;5.30;;;4.00;99.90;;;;;;5026003;28;20037;-53
2021/12/21 11:56:34;;;;;;;18.13;6.18;;;3.90;99.90;;;;;;5024574;28;20099;-56
2021/12/21 11:59:01;;;;;;;15.27;6.68;;;3.90;99.90;;;;;;5035185;28;20037;-53
2021/12/21 12:01:29;;;;;;;10.70;5.03;;;3.80;99.90;;;;;;5025951;28;20030;-54
2021/12/21 12:04:04;;;;;;;15.05;6.38;;;3.90;99.90;;;;;;5016786;28;20030;-54
2021/12/21 12:06:47;;;;;;;17.42;5.75;;;3.90;99.90;;;;;;5016509;28;20026;-56
2021/12/21 12:09:22;;;;;;;13.85;6.30;;;3.90;99.90;;;;;;5015670;28;20030;-54
2021/12/21 12:12:27;;;;;;;11.32;5.38;;;4.20;99.90;;;;;;5015848;28;20022;-53
2021/12/21 12:15:00;;;;;;;10.80;5.78;;;4.10;99.90;;;;;;5031659;28;20018;-55
2021/12/21 12:17:30;;;;;;;15.00;5.45;;;4.40;99.90;;;;;;5016593;28;20072;-53
2021/12/21 12:20:04;;;;;;;10.40;5.07;;;4.20;99.90;;;;;;5016494;28;20022;-55
2021/12/21 12:22:33;;;;;;;16.15;6.72;;;4.00;99.90;;;;;;5016563;28;20396;-50
2021/12/21 12:24:59;;;;;;;19.92;6.13;;;4.10;99.90;;;;;;5016241;28;20028;-55
2021/12/21 12:27:30;;;;;;;15.10;6.60;;;4.10;99.90;;;;;;5015110;28;20033;-55
2021/12/21 12:30:09;;;;;;;12.37;5.23;;;4.00;99.90;;;;;;5014772;28;20030;-53
2021/12/21 12:32:34;;;;;;;18.15;5.38;;;4.00;99.90;;;;;;5016243;28;20311;-52
2021/12/21 12:35:08;;;;;;;14.98;6.18;;;4.00;99.90;;;;;;5015922;28;20022;-54
2021/12/21 12:37:46;;;;;;;15.57;6.40;;;4.00;99.90;;;;;;5016152;28;20014;-53
2021/12/21 12:40:14;;;;;;;12.15;5.43;;;4.00;99.90;;;;;;5016105;28;20058;-53
2021/12/21 12:42:40;;;;;;;12.27;5.38;;;4.10;99.90;;;;;;5016046;28;20033;-53
2021/12/21 12:45:11;;;;;;;12.68;5.43;;;4.10;99.90;;;;;;5016243;28;20052;-55
2021/12/21 12:47:46;;;;;;;19.70;6.50;;;4.10;99.90;;;;;;5014700;28;20026;-54
2021/12/21 12:50:17;;;;;;;11.95;5.75;;;4.00;99.90;;;;;;5014751;28;20042;-51
2021/12/21 12:52:56;;;;;;;;;;;4.00;99.90;;;;;;5015275;28;20105;-54
2021/12/21 12:55:25;;;;;;;16.92;5.28;;;3.90;99.90;;;;;;5014535;28;19956;-56
2021/12/21 12:57:54;;;;;;;9.40;5.07;;;3.90;99.90;;;;;;5015750;28;20072;-55
2021/12/21 13:00:25;;;;;;;16.15;5.50;;;4.00;99.90;;;;;;5015666;28;20080;-55
2021/12/21 13:03:12;;;;;;;13.52;4.97;;;3.90;99.90;;;;;;5015726;28;20080;-52
2021/12/21 13:05:56;;;;;;;14.32;5.80;;;4.00;99.90;;;;;;5014279;28;20022;-56
2021/12/21 13:08:26;;;;;;;12.15;5.75;;;3.90;99.90;;;;;;5015550;28;20113;-55
2021/12/21 13:10:58;;;;;;;13.77;5.63;;;3.90;99.90;;;;;;5015659;28;20022;-54
2021/12/21 13:13:42;;;;;;;8.55;5.28;;;3.90;99.90;;;;;;5015659;28;20026;-55
2021/12/21 13:16:21;;;;;;;13.75;5.85;;;4.00;99.90;;;;;;5015551;28;20515;-55
2021/12/21 13:18:48;;;;;;;13.45;6.28;;;4.00;99.90;;;;;;5014267;28;20491;-53
2021/12/21 13:21:18;;;;;;;11.90;5.43;;;4.10;99.90;;;;;;5014171;28;20034;-52
2021/12/21 13:23:44;;;;;;;13.65;6.10;;;4.10;99.90;;;;;;5014126;28;20030;-52
2021/12/21 13:26:09;;;;;;;12.30;5.97;;;4.00;99.90;;;;;;5015250;28;20057;-55
2021/12/21 13:28:44;;;;;;;12.82;6.07;;;4.00;99.90;;;;;;5015196;28;20099;-51
2021/12/21 13:31:10;;;;;;;12.23;5.30;;;4.00;99.90;;;;;;5014263;28;20033;-53
2021/12/21 13:33:40;;;;;;;14.95;5.35;;;4.00;99.90;;;;;;5015123;28;20022;-55
2021/12/21 13:36:08;;;;;;;12.55;5.90;;;4.10;99.90;;;;;;5033380;28;20018;-56
2021/12/21 13:38:37;;;;;;;18.83;5.88;;;4.00;99.90;;;;;;5023712;28;20025;-54
2021/12/21 13:41:11;;;;;;;17.88;6.82;;;4.00;99.90;;;;;;5014869;28;20076;-55
2021/12/21 13:43:39;;;;;;;17.40;6.95;;;4.00;99.90;;;;;;5014084;28;20026;-56
2021/12/21 13:46:13;;;;;;;15.25;5.63;;;3.90;99.90;;;;;;5014763;28;20468;-53
2021/12/21 13:48:38;;;;;;;10.05;5.63;;;3.90;99.90;;;;;;5013402;28;20026;-52
2021/12/21 13:51:16;;;;;;;12.68;5.55;;;4.00;99.90;;;;;;5013380;28;20045;-57
2021/12/21 13:53:48;;;;;;;13.07;5.80;;;4.00;99.90;;;;;;5014041;28;20026;-55
2021/12/21 13:56:17;;;;;;;12.32;5.72;;;3.90;99.90;;;;;;5013671;28;20081;-57
2021/12/21 13:58:45;;;;;;;14.68;6.13;;;3.90;99.90;;;;;;5013440;28;20033;-55
2021/12/21 14:01:23;;;;;;;13.35;5.22;;;3.90;99.90;;;;;;5014402;28;20026;-53
2021/12/21 14:03:54;;;;;;;11.73;5.10;;;3.80;99.90;;;;;;5013096;28;20230;-53